sensor_id;sensor_type;location;lat;lon;timestamp;P1;durP1;ratioP1;P2;durP2;ratioP2
34007;SDS011;41085;51.594;7.138;2022-12-07T00:01:38;0.10;;;0.00;;
34007;SDS011;41085;51.594;7.138;2022-12-07T00:05:40;0.10;;;0.10;;
34007;SDS011;41085;51.594;7.138;2022-12-07T00:09:41;0.30;;;0.00;;
34007;SDS011;41085;51.594;7.138;2022-12-07T00:13:41;0.20;;;0.10;;
34007;SDS011;41085;51.594;7.138;2022-12-07T00:17:42;0.00;;;0.00;;
34007;SDS011;41085;51.594;7.138;2022-12-07T00:21:43;0.00;;;0.00;;
34007;SDS011;41085;51.594;7.138;2022-12-07T00:25:44;0.00;;;0.00;;
34007;SDS011;41085;51.594;7.138;2022-12-07T00:29:44;0.30;;;0.07;;
34007;SDS011;41085;51.594;7.138;2022-12-07T00:33:45;0.20;;;0.00;;
34007;SDS011;41085;51.594;7.138;2022-12-07T00:37:46;0.07;;;0.00;;
34007;SDS011;41085;51.594;7.138;2022-12-07T00:41:47;0.10;;;0.10;;
34007;SDS011;41085;51.594;7.138;2022-12-07T00:45:47;0.00;;;0.00;;
34007;SDS011;41085;51.594;7.138;2022-12-07T00:49:48;0.10;;;0.10;;
34007;SDS011;41085;51.594;7.138;2022-12-07T00:53:48;0.00;;;0.00;;
34007;SDS011;41085;51.594;7.138;2022-12-07T00:57:49;0.00;;;0.00;;
34007;SDS011;41085;51.594;7.138;2022-12-07T01:01:50;0.00;;;0.00;;
34007;SDS011;41085;51.594;7.138;2022-12-07T01:05:51;0.10;;;0.07;;
34007;SDS011;41085;51.594;7.138;2022-12-07T01:09:52;0.10;;;0.10;;
34007;SDS011;41085;51.594;7.138;2022-12-07T01:13:54;0.10;;;0.10;;
34007;SDS011;41085;51.594;7.138;2022-12-07T01:17:55;0.10;;;0.00;;
34007;SDS011;41085;51.594;7.138;2022-12-07T01:21:56;0.30;;;0.10;;
34007;SDS011;41085;51.594;7.138;2022-12-07T01:25:57;0.20;;;0.10;;
34007;SDS011;41085;51.594;7.138;2022-12-07T01:29:58;0.70;;;0.00;;
34007;SDS011;41085;51.594;7.138;2022-12-07T01:33:59;0.10;;;0.10;;
34007;SDS011;41085;51.594;7.138;2022-12-07T01:38:00;0.10;;;0.10;;
34007;SDS011;41085;51.594;7.138;2022-12-07T01:42:01;2.08;;;0.17;;
34007;SDS011;41085;51.594;7.138;2022-12-07T01:46:02;0.10;;;0.10;;
34007;SDS011;41085;51.594;7.138;2022-12-07T01:50:04;1.10;;;0.03;;
34007;SDS011;41085;51.594;7.138;2022-12-07T01:54:05;0.20;;;0.00;;
34007;SDS011;41085;51.594;7.138;2022-12-07T01:58:05;0.43;;;0.32;;
34007;SDS011;41085;51.594;7.138;2022-12-07T02:02:08;0.10;;;0.10;;
34007;SDS011;41085;51.594;7.138;2022-12-07T02:06:14;1.05;;;0.10;;
34007;SDS011;41085;51.594;7.138;2022-12-07T02:10:20;0.30;;;0.10;;
34007;SDS011;41085;51.594;7.138;2022-12-07T02:14:22;1.10;;;0.20;;
34007;SDS011;41085;51.594;7.138;2022-12-07T02:18:25;1.70;;;0.17;;
34007;SDS011;41085;51.594;7.138;2022-12-07T02:30:58;0.13;;;0.00;;
34007;SDS011;41085;51.594;7.138;2022-12-07T02:35:11;0.30;;;0.00;;
34007;SDS011;41085;51.594;7.138;2022-12-07T02:43:43;0.03;;;0.00;;
34007;SDS011;41085;51.594;7.138;2022-12-07T02:47:48;0.00;;;0.00;;
34007;SDS011;41085;51.594;7.138;2022-12-07T02:51:53;0.25;;;0.10;;
34007;SDS011;41085;51.594;7.138;2022-12-07T02:55:53;2.47;;;0.08;;
34007;SDS011;41085;51.594;7.138;2022-12-07T03:12:53;0.90;;;0.17;;
34007;SDS011;41085;51.594;7.138;2022-12-07T03:21:14;0.10;;;0.00;;
34007;SDS011;41085;51.594;7.138;2022-12-07T03:25:17;0.00;;;0.00;;
34007;SDS011;41085;51.594;7.138;2022-12-07T03:29:33;0.10;;;0.00;;
34007;SDS011;41085;51.594;7.138;2022-12-07T03:33:39;0.10;;;0.10;;
34007;SDS011;41085;51.594;7.138;2022-12-07T03:37:57;0.95;;;0.10;;
34007;SDS011;41085;51.594;7.138;2022-12-07T03:42:08;0.40;;;0.10;;
34007;SDS011;41085;51.594;7.138;2022-12-07T03:50:31;0.15;;;0.00;;
34007;SDS011;41085;51.594;7.138;2022-12-07T03:58:42;0.10;;;0.10;;
34007;SDS011;41085;51.594;7.138;2022-12-07T04:02:43;0.20;;;0.00;;
34007;SDS011;41085;51.594;7.138;2022-12-07T04:06:44;0.00;;;0.00;;
34007;SDS011;41085;51.594;7.138;2022-12-07T04:10:44;0.00;;;0.00;;
34007;SDS011;41085;51.594;7.138;2022-12-07T04:14:45;0.00;;;0.00;;
34007;SDS011;41085;51.594;7.138;2022-12-07T04:18:45;0.37;;;0.10;;
34007;SDS011;41085;51.594;7.138;2022-12-07T04:22:46;0.10;;;0.00;;
34007;SDS011;41085;51.594;7.138;2022-12-07T04:26:47;0.50;;;0.00;;
34007;SDS011;41085;51.594;7.138;2022-12-07T04:30:47;0.00;;;0.00;;
34007;SDS011;41085;51.594;7.138;2022-12-07T04:34:48;0.10;;;0.00;;
34007;SDS011;41085;51.594;7.138;2022-12-07T04:38:48;0.00;;;0.00;;
34007;SDS011;41085;51.594;7.138;2022-12-07T04:42:49;0.13;;;0.00;;
34007;SDS011;41085;51.594;7.138;2022-12-07T04:46:50;0.00;;;0.00;;
34007;SDS011;41085;51.594;7.138;2022-12-07T04:50:51;0.00;;;0.00;;
34007;SDS011;41085;51.594;7.138;2022-12-07T04:54:52;0.00;;;0.00;;
34007;SDS011;41085;51.594;7.138;2022-12-07T04:58:53;0.30;;;0.20;;
34007;SDS011;41085;51.594;7.138;2022-12-07T05:02:54;0.10;;;0.00;;
34007;SDS011;41085;51.594;7.138;2022-12-07T05:06:54;0.43;;;0.10;;
34007;SDS011;41085;51.594;7.138;2022-12-07T05:10:55;0.13;;;0.10;;
34007;SDS011;41085;51.594;7.138;2022-12-07T05:14:55;0.40;;;0.10;;
34007;SDS011;41085;51.594;7.138;2022-12-07T05:18:56;0.10;;;0.00;;
34007;SDS011;41085;51.594;7.138;2022-12-07T05:22:57;0.00;;;0.00;;
34007;SDS011;41085;51.594;7.138;2022-12-07T05:26:58;0.10;;;0.00;;
34007;SDS011;41085;51.594;7.138;2022-12-07T05:30:59;0.10;;;0.10;;
34007;SDS011;41085;51.594;7.138;2022-12-07T05:34:59;0.10;;;0.00;;
34007;SDS011;41085;51.594;7.138;2022-12-07T05:39:00;0.00;;;0.00;;
34007;SDS011;41085;51.594;7.138;2022-12-07T05:43:00;0.20;;;0.10;;
34007;SDS011;41085;51.594;7.138;2022-12-07T05:47:01;0.00;;;0.00;;
34007;SDS011;41085;51.594;7.138;2022-12-07T05:51:02;0.00;;;0.00;;
34007;SDS011;41085;51.594;7.138;2022-12-07T05:55:02;0.10;;;0.10;;
34007;SDS011;41085;51.594;7.138;2022-12-07T05:59:03;0.30;;;0.00;;
34007;SDS011;41085;51.594;7.138;2022-12-07T06:03:30;0.00;;;0.00;;
34007;SDS011;41085;51.594;7.138;2022-12-07T06:07:30;0.10;;;0.10;;
34007;SDS011;41085;51.594;7.138;2022-12-07T06:11:31;0.00;;;0.00;;
34007;SDS011;41085;51.594;7.138;2022-12-07T06:15:50;0.50;;;0.00;;
34007;SDS011;41085;51.594;7.138;2022-12-07T06:19:50;0.40;;;0.10;;
34007;SDS011;41085;51.594;7.138;2022-12-07T06:23:51;0.10;;;0.00;;
34007;SDS011;41085;51.594;7.138;2022-12-07T06:27:52;0.03;;;0.00;;
34007;SDS011;41085;51.594;7.138;2022-12-07T06:31:52;0.00;;;0.00;;
34007;SDS011;41085;51.594;7.138;2022-12-07T06:35:53;0.30;;;0.07;;
34007;SDS011;41085;51.594;7.138;2022-12-07T06:39:54;0.20;;;0.10;;
34007;SDS011;41085;51.594;7.138;2022-12-07T06:43:56;0.80;;;0.08;;
34007;SDS011;41085;51.594;7.138;2022-12-07T06:47:56;0.20;;;0.10;;
34007;SDS011;41085;51.594;7.138;2022-12-07T06:51:57;0.00;;;0.00;;
34007;SDS011;41085;51.594;7.138;2022-12-07T06:55:57;0.10;;;0.00;;
34007;SDS011;41085;51.594;7.138;2022-12-07T06:59:58;0.00;;;0.00;;
34007;SDS011;41085;51.594;7.138;2022-12-07T07:03:58;0.10;;;0.10;;
34007;SDS011;41085;51.594;7.138;2022-12-07T07:07:59;0.00;;;0.00;;
34007;SDS011;41085;51.594;7.138;2022-12-07T07:12:00;0.00;;;0.00;;
34007;SDS011;41085;51.594;7.138;2022-12-07T07:16:01;0.40;;;0.00;;
34007;SDS011;41085;51.594;7.138;2022-12-07T07:20:01;0.00;;;0.00;;
34007;SDS011;41085;51.594;7.138;2022-12-07T07:24:03;0.00;;;0.00;;
34007;SDS011;41085;51.594;7.138;2022-12-07T07:28:04;1.30;;;0.10;;
34007;SDS011;41085;51.594;7.138;2022-12-07T07:32:04;0.17;;;0.00;;
34007;SDS011;41085;51.594;7.138;2022-12-07T07:36:05;0.00;;;0.00;;
34007;SDS011;41085;51.594;7.138;2022-12-07T07:40:08;0.00;;;0.00;;
34007;SDS011;41085;51.594;7.138;2022-12-07T07:44:09;0.00;;;0.00;;
34007;SDS011;41085;51.594;7.138;2022-12-07T07:48:11;0.10;;;0.00;;
34007;SDS011;41085;51.594;7.138;2022-12-07T07:52:11;0.00;;;0.00;;
34007;SDS011;41085;51.594;7.138;2022-12-07T07:56:14;0.00;;;0.00;;
34007;SDS011;41085;51.594;7.138;2022-12-07T08:00:15;0.10;;;0.00;;
34007;SDS011;41085;51.594;7.138;2022-12-07T08:04:16;0.00;;;0.00;;
34007;SDS011;41085;51.594;7.138;2022-12-07T08:08:16;0.10;;;0.03;;
34007;SDS011;41085;51.594;7.138;2022-12-07T08:12:17;0.00;;;0.00;;
34007;SDS011;41085;51.594;7.138;2022-12-07T08:16:18;0.20;;;0.00;;
34007;SDS011;41085;51.594;7.138;2022-12-07T08:20:18;0.30;;;0.10;;
34007;SDS011;41085;51.594;7.138;2022-12-07T08:24:19;0.10;;;0.10;;
34007;SDS011;41085;51.594;7.138;2022-12-07T08:28:20;0.00;;;0.00;;
34007;SDS011;41085;51.594;7.138;2022-12-07T08:32:20;0.50;;;0.32;;
34007;SDS011;41085;51.594;7.138;2022-12-07T08:36:21;0.20;;;0.10;;
34007;SDS011;41085;51.594;7.138;2022-12-07T08:40:22;0.10;;;0.08;;
34007;SDS011;41085;51.594;7.138;2022-12-07T08:44:23;0.00;;;0.00;;
34007;SDS011;41085;51.594;7.138;2022-12-07T08:48:23;0.00;;;0.00;;
34007;SDS011;41085;51.594;7.138;2022-12-07T08:52:25;0.47;;;0.28;;
34007;SDS011;41085;51.594;7.138;2022-12-07T08:56:26;2.17;;;0.50;;
34007;SDS011;41085;51.594;7.138;2022-12-07T09:00:27;0.40;;;0.30;;
34007;SDS011;41085;51.594;7.138;2022-12-07T09:04:27;0.82;;;0.28;;
34007;SDS011;41085;51.594;7.138;2022-12-07T09:08:30;0.50;;;0.30;;
34007;SDS011;41085;51.594;7.138;2022-12-07T09:12:33;0.65;;;0.45;;
34007;SDS011;41085;51.594;7.138;2022-12-07T09:16:34;3.83;;;0.33;;
34007;SDS011;41085;51.594;7.138;2022-12-07T09:20:34;0.60;;;0.30;;
34007;SDS011;41085;51.594;7.138;2022-12-07T09:24:35;0.40;;;0.30;;
34007;SDS011;41085;51.594;7.138;2022-12-07T09:28:35;0.80;;;0.30;;
34007;SDS011;41085;51.594;7.138;2022-12-07T09:32:36;0.10;;;0.10;;
34007;SDS011;41085;51.594;7.138;2022-12-07T09:36:37;1.10;;;0.40;;
34007;SDS011;41085;51.594;7.138;2022-12-07T09:40:37;0.90;;;0.30;;
34007;SDS011;41085;51.594;7.138;2022-12-07T09:44:39;1.70;;;0.23;;
34007;SDS011;41085;51.594;7.138;2022-12-07T09:48:40;8.60;;;0.45;;
34007;SDS011;41085;51.594;7.138;2022-12-07T09:52:43;0.60;;;0.13;;
34007;SDS011;41085;51.594;7.138;2022-12-07T09:56:45;1.70;;;0.35;;
34007;SDS011;41085;51.594;7.138;2022-12-07T10:00:46;1.20;;;0.53;;
34007;SDS011;41085;51.594;7.138;2022-12-07T10:04:46;0.87;;;0.23;;
34007;SDS011;41085;51.594;7.138;2022-12-07T10:08:47;0.30;;;0.30;;
34007;SDS011;41085;51.594;7.138;2022-12-07T10:13:01;1.10;;;0.50;;
34007;SDS011;41085;51.594;7.138;2022-12-07T10:21:29;0.70;;;0.38;;
34007;SDS011;41085;51.594;7.138;2022-12-07T10:25:31;0.70;;;0.20;;
34007;SDS011;41085;51.594;7.138;2022-12-07T10:29:36;0.60;;;0.32;;
34007;SDS011;41085;51.594;7.138;2022-12-07T10:33:49;0.30;;;0.20;;
34007;SDS011;41085;51.594;7.138;2022-12-07T10:37:56;3.17;;;0.20;;
34007;SDS011;41085;51.594;7.138;2022-12-07T10:41:59;0.40;;;0.25;;
34007;SDS011;41085;51.594;7.138;2022-12-07T10:54:40;0.73;;;0.28;;
34007;SDS011;41085;51.594;7.138;2022-12-07T11:07:42;0.30;;;0.20;;
34007;SDS011;41085;51.594;7.138;2022-12-07T11:24:26;0.93;;;0.25;;
34007;SDS011;41085;51.594;7.138;2022-12-07T11:37:31;0.00;;;0.00;;
34007;SDS011;41085;51.594;7.138;2022-12-07T11:41:37;0.03;;;0.00;;
34007;SDS011;41085;51.594;7.138;2022-12-07T11:45:44;1.60;;;0.20;;
34007;SDS011;41085;51.594;7.138;2022-12-07T11:54:28;0.05;;;0.00;;
34007;SDS011;41085;51.594;7.138;2022-12-07T12:02:48;0.82;;;0.20;;
34007;SDS011;41085;51.594;7.138;2022-12-07T12:06:58;0.75;;;0.10;;
34007;SDS011;41085;51.594;7.138;2022-12-07T12:19:33;0.10;;;0.10;;
34007;SDS011;41085;51.594;7.138;2022-12-07T12:23:45;0.10;;;0.10;;
34007;SDS011;41085;51.594;7.138;2022-12-07T12:27:51;0.50;;;0.10;;
34007;SDS011;41085;51.594;7.138;2022-12-07T12:32:05;0.10;;;0.10;;
34007;SDS011;41085;51.594;7.138;2022-12-07T12:52:56;1.70;;;0.10;;
34007;SDS011;41085;51.594;7.138;2022-12-07T12:57:17;0.17;;;0.10;;
34007;SDS011;41085;51.594;7.138;2022-12-07T13:01:41;0.10;;;0.10;;
34007;SDS011;41085;51.594;7.138;2022-12-07T13:05:43;0.70;;;0.00;;
34007;SDS011;41085;51.594;7.138;2022-12-07T13:09:44;0.28;;;0.10;;
34007;SDS011;41085;51.594;7.138;2022-12-07T13:13:45;0.10;;;0.00;;
34007;SDS011;41085;51.594;7.138;2022-12-07T13:17:56;0.10;;;0.03;;
34007;SDS011;41085;51.594;7.138;2022-12-07T13:21:58;0.40;;;0.00;;
34007;SDS011;41085;51.594;7.138;2022-12-07T13:30:13;0.50;;;0.10;;
34007;SDS011;41085;51.594;7.138;2022-12-07T13:38:35;0.17;;;0.08;;
34007;SDS011;41085;51.594;7.138;2022-12-07T13:42:37;0.00;;;0.00;;
34007;SDS011;41085;51.594;7.138;2022-12-07T13:46:49;0.00;;;0.00;;
34007;SDS011;41085;51.594;7.138;2022-12-07T13:51:04;0.40;;;0.20;;
34007;SDS011;41085;51.594;7.138;2022-12-07T13:59:10;0.30;;;0.10;;
34007;SDS011;41085;51.594;7.138;2022-12-07T14:03:33;0.10;;;0.05;;
34007;SDS011;41085;51.594;7.138;2022-12-07T14:07:44;0.70;;;0.20;;
34007;SDS011;41085;51.594;7.138;2022-12-07T14:11:53;0.28;;;0.05;;
34007;SDS011;41085;51.594;7.138;2022-12-07T14:15:56;0.20;;;0.10;;
34007;SDS011;41085;51.594;7.138;2022-12-07T14:19:58;1.42;;;0.08;;
34007;SDS011;41085;51.594;7.138;2022-12-07T14:24:25;0.45;;;0.20;;
34007;SDS011;41085;51.594;7.138;2022-12-07T14:28:26;0.10;;;0.08;;
34007;SDS011;41085;51.594;7.138;2022-12-07T14:32:29;0.40;;;0.10;;
34007;SDS011;41085;51.594;7.138;2022-12-07T14:36:30;0.20;;;0.10;;
34007;SDS011;41085;51.594;7.138;2022-12-07T14:40:31;0.80;;;0.10;;
34007;SDS011;41085;51.594;7.138;2022-12-07T14:44:32;0.55;;;0.10;;
34007;SDS011;41085;51.594;7.138;2022-12-07T14:48:33;0.20;;;0.10;;
34007;SDS011;41085;51.594;7.138;2022-12-07T14:52:33;0.50;;;0.10;;
34007;SDS011;41085;51.594;7.138;2022-12-07T14:56:34;0.55;;;0.10;;
34007;SDS011;41085;51.594;7.138;2022-12-07T15:00:34;0.00;;;0.00;;
34007;SDS011;41085;51.594;7.138;2022-12-07T15:04:35;0.10;;;0.07;;
34007;SDS011;41085;51.594;7.138;2022-12-07T15:08:35;0.10;;;0.00;;
34007;SDS011;41085;51.594;7.138;2022-12-07T15:12:36;0.57;;;0.20;;
34007;SDS011;41085;51.594;7.138;2022-12-07T15:16:37;0.60;;;0.10;;
34007;SDS011;41085;51.594;7.138;2022-12-07T15:20:42;0.63;;;0.10;;
34007;SDS011;41085;51.594;7.138;2022-12-07T15:24:43;0.10;;;0.00;;
34007;SDS011;41085;51.594;7.138;2022-12-07T15:28:43;0.10;;;0.10;;
34007;SDS011;41085;51.594;7.138;2022-12-07T15:32:44;0.20;;;0.00;;
34007;SDS011;41085;51.594;7.138;2022-12-07T15:36:48;0.10;;;0.05;;
34007;SDS011;41085;51.594;7.138;2022-12-07T15:40:50;0.10;;;0.10;;
34007;SDS011;41085;51.594;7.138;2022-12-07T15:44:51;0.23;;;0.10;;
34007;SDS011;41085;51.594;7.138;2022-12-07T15:49:09;0.15;;;0.00;;
34007;SDS011;41085;51.594;7.138;2022-12-07T15:53:17;0.10;;;0.00;;
34007;SDS011;41085;51.594;7.138;2022-12-07T15:57:18;0.03;;;0.00;;
34007;SDS011;41085;51.594;7.138;2022-12-07T16:01:19;0.10;;;0.10;;
34007;SDS011;41085;51.594;7.138;2022-12-07T16:05:20;0.10;;;0.00;;
34007;SDS011;41085;51.594;7.138;2022-12-07T16:09:20;0.00;;;0.00;;
34007;SDS011;41085;51.594;7.138;2022-12-07T16:13:21;0.10;;;0.10;;
34007;SDS011;41085;51.594;7.138;2022-12-07T16:17:21;0.20;;;0.00;;
34007;SDS011;41085;51.594;7.138;2022-12-07T16:21:22;0.00;;;0.00;;
34007;SDS011;41085;51.594;7.138;2022-12-07T16:25:22;0.30;;;0.00;;
34007;SDS011;41085;51.594;7.138;2022-12-07T16:29:23;0.20;;;0.03;;
34007;SDS011;41085;51.594;7.138;2022-12-07T16:33:24;0.40;;;0.10;;
34007;SDS011;41085;51.594;7.138;2022-12-07T16:37:24;0.20;;;0.10;;
34007;SDS011;41085;51.594;7.138;2022-12-07T16:41:25;0.30;;;0.13;;
34007;SDS011;41085;51.594;7.138;2022-12-07T16:45:26;0.00;;;0.00;;
34007;SDS011;41085;51.594;7.138;2022-12-07T16:49:26;0.00;;;0.00;;
34007;SDS011;41085;51.594;7.138;2022-12-07T16:53:27;0.00;;;0.00;;
34007;SDS011;41085;51.594;7.138;2022-12-07T16:57:27;0.40;;;0.00;;
34007;SDS011;41085;51.594;7.138;2022-12-07T17:01:31;0.00;;;0.00;;
34007;SDS011;41085;51.594;7.138;2022-12-07T17:05:31;0.10;;;0.00;;
34007;SDS011;41085;51.594;7.138;2022-12-07T17:09:32;0.00;;;0.00;;
34007;SDS011;41085;51.594;7.138;2022-12-07T17:13:33;0.00;;;0.00;;
34007;SDS011;41085;51.594;7.138;2022-12-07T17:21:53;0.00;;;0.00;;
34007;SDS011;41085;51.594;7.138;2022-12-07T17:26:13;0.00;;;0.00;;
34007;SDS011;41085;51.594;7.138;2022-12-07T17:30:22;0.15;;;0.00;;
34007;SDS011;41085;51.594;7.138;2022-12-07T17:34:25;0.20;;;0.00;;
34007;SDS011;41085;51.594;7.138;2022-12-07T17:38:27;0.30;;;0.00;;
34007;SDS011;41085;51.594;7.138;2022-12-07T17:42:31;0.20;;;0.10;;
34007;SDS011;41085;51.594;7.138;2022-12-07T17:46:39;0.00;;;0.00;;
34007;SDS011;41085;51.594;7.138;2022-12-07T17:50:39;0.10;;;0.00;;
34007;SDS011;41085;51.594;7.138;2022-12-07T17:54:58;0.00;;;0.00;;
34007;SDS011;41085;51.594;7.138;2022-12-07T17:58:59;0.20;;;0.10;;
34007;SDS011;41085;51.594;7.138;2022-12-07T18:03:00;0.00;;;0.00;;
34007;SDS011;41085;51.594;7.138;2022-12-07T18:07:00;0.60;;;0.00;;
34007;SDS011;41085;51.594;7.138;2022-12-07T18:11:01;0.00;;;0.00;;
34007;SDS011;41085;51.594;7.138;2022-12-07T18:15:02;0.30;;;0.10;;
34007;SDS011;41085;51.594;7.138;2022-12-07T18:19:03;0.00;;;0.00;;
34007;SDS011;41085;51.594;7.138;2022-12-07T18:23:05;0.00;;;0.00;;
34007;SDS011;41085;51.594;7.138;2022-12-07T18:27:06;0.20;;;0.10;;
34007;SDS011;41085;51.594;7.138;2022-12-07T18:31:06;0.30;;;0.10;;
34007;SDS011;41085;51.594;7.138;2022-12-07T18:35:07;0.00;;;0.00;;
34007;SDS011;41085;51.594;7.138;2022-12-07T18:39:08;0.10;;;0.00;;
34007;SDS011;41085;51.594;7.138;2022-12-07T18:43:09;0.10;;;0.00;;
34007;SDS011;41085;51.594;7.138;2022-12-07T18:47:10;0.10;;;0.08;;
34007;SDS011;41085;51.594;7.138;2022-12-07T18:51:12;0.10;;;0.00;;
34007;SDS011;41085;51.594;7.138;2022-12-07T18:55:13;0.10;;;0.10;;
34007;SDS011;41085;51.594;7.138;2022-12-07T18:59:14;0.00;;;0.00;;
34007;SDS011;41085;51.594;7.138;2022-12-07T19:03:33;0.20;;;0.00;;
34007;SDS011;41085;51.594;7.138;2022-12-07T19:07:33;0.00;;;0.00;;
34007;SDS011;41085;51.594;7.138;2022-12-07T19:11:34;0.00;;;0.00;;
34007;SDS011;41085;51.594;7.138;2022-12-07T19:15:49;0.30;;;0.20;;
34007;SDS011;41085;51.594;7.138;2022-12-07T19:19:50;0.80;;;0.00;;
34007;SDS011;41085;51.594;7.138;2022-12-07T19:23:51;0.00;;;0.00;;
34007;SDS011;41085;51.594;7.138;2022-12-07T19:27:52;0.10;;;0.00;;
34007;SDS011;41085;51.594;7.138;2022-12-07T19:31:52;0.40;;;0.10;;
34007;SDS011;41085;51.594;7.138;2022-12-07T19:35:53;0.15;;;0.15;;
34007;SDS011;41085;51.594;7.138;2022-12-07T19:39:54;0.00;;;0.00;;
34007;SDS011;41085;51.594;7.138;2022-12-07T19:43:55;0.40;;;0.10;;
34007;SDS011;41085;51.594;7.138;2022-12-07T19:47:56;0.30;;;0.10;;
34007;SDS011;41085;51.594;7.138;2022-12-07T19:51:58;0.00;;;0.00;;
34007;SDS011;41085;51.594;7.138;2022-12-07T19:55:59;0.70;;;0.00;;
34007;SDS011;41085;51.594;7.138;2022-12-07T20:00:00;0.00;;;0.00;;
34007;SDS011;41085;51.594;7.138;2022-12-07T20:04:02;0.00;;;0.00;;
34007;SDS011;41085;51.594;7.138;2022-12-07T20:08:05;0.10;;;0.10;;
34007;SDS011;41085;51.594;7.138;2022-12-07T20:12:05;0.20;;;0.10;;
34007;SDS011;41085;51.594;7.138;2022-12-07T20:16:26;0.05;;;0.00;;
34007;SDS011;41085;51.594;7.138;2022-12-07T20:20:27;0.10;;;0.00;;
34007;SDS011;41085;51.594;7.138;2022-12-07T20:24:27;0.00;;;0.00;;
34007;SDS011;41085;51.594;7.138;2022-12-07T20:28:28;0.00;;;0.00;;
34007;SDS011;41085;51.594;7.138;2022-12-07T20:32:29;0.00;;;0.00;;
34007;SDS011;41085;51.594;7.138;2022-12-07T20:36:29;0.00;;;0.00;;
34007;SDS011;41085;51.594;7.138;2022-12-07T20:40:30;0.10;;;0.10;;
34007;SDS011;41085;51.594;7.138;2022-12-07T20:44:31;0.10;;;0.00;;
34007;SDS011;41085;51.594;7.138;2022-12-07T20:48:31;0.13;;;0.03;;
34007;SDS011;41085;51.594;7.138;2022-12-07T20:52:32;0.30;;;0.00;;
34007;SDS011;41085;51.594;7.138;2022-12-07T20:56:32;0.03;;;0.03;;
34007;SDS011;41085;51.594;7.138;2022-12-07T21:00:33;0.00;;;0.00;;
34007;SDS011;41085;51.594;7.138;2022-12-07T21:04:34;0.10;;;0.00;;
34007;SDS011;41085;51.594;7.138;2022-12-07T21:08:35;0.10;;;0.07;;
34007;SDS011;41085;51.594;7.138;2022-12-07T21:12:36;0.30;;;0.20;;
34007;SDS011;41085;51.594;7.138;2022-12-07T21:16:36;0.00;;;0.00;;
34007;SDS011;41085;51.594;7.138;2022-12-07T21:20:37;0.00;;;0.00;;
34007;SDS011;41085;51.594;7.138;2022-12-07T21:24:37;0.10;;;0.10;;
34007;SDS011;41085;51.594;7.138;2022-12-07T21:28:40;0.00;;;0.00;;
34007;SDS011;41085;51.594;7.138;2022-12-07T21:32:41;0.08;;;0.03;;
34007;SDS011;41085;51.594;7.138;2022-12-07T21:36:42;0.10;;;0.10;;
34007;SDS011;41085;51.594;7.138;2022-12-07T21:40:42;0.00;;;0.00;;
34007;SDS011;41085;51.594;7.138;2022-12-07T21:44:43;0.10;;;0.10;;
34007;SDS011;41085;51.594;7.138;2022-12-07T21:48:54;0.17;;;0.10;;
34007;SDS011;41085;51.594;7.138;2022-12-07T21:52:57;0.20;;;0.00;;
34007;SDS011;41085;51.594;7.138;2022-12-07T21:56:57;0.00;;;0.00;;
34007;SDS011;41085;51.594;7.138;2022-12-07T22:00:58;0.10;;;0.10;;
34007;SDS011;41085;51.594;7.138;2022-12-07T22:04:59;0.10;;;0.05;;
34007;SDS011;41085;51.594;7.138;2022-12-07T22:08:59;0.00;;;0.00;;
34007;SDS011;41085;51.594;7.138;2022-12-07T22:13:00;0.25;;;0.00;;
34007;SDS011;41085;51.594;7.138;2022-12-07T22:17:01;0.00;;;0.00;;
34007;SDS011;41085;51.594;7.138;2022-12-07T22:21:02;0.00;;;0.00;;
34007;SDS011;41085;51.594;7.138;2022-12-07T22:25:02;0.07;;;0.00;;
34007;SDS011;41085;51.594;7.138;2022-12-07T22:29:03;0.90;;;0.00;;
34007;SDS011;41085;51.594;7.138;2022-12-07T22:33:04;0.10;;;0.10;;
34007;SDS011;41085;51.594;7.138;2022-12-07T22:37:04;0.17;;;0.00;;
34007;SDS011;41085;51.594;7.138;2022-12-07T22:45:14;0.53;;;0.13;;
34007;SDS011;41085;51.594;7.138;2022-12-07T22:49:17;0.00;;;0.00;;
34007;SDS011;41085;51.594;7.138;2022-12-07T22:53:20;0.10;;;0.05;;
34007;SDS011;41085;51.594;7.138;2022-12-07T22:57:23;1.25;;;0.52;;
34007;SDS011;41085;51.594;7.138;2022-12-07T23:01:23;3.03;;;0.60;;
34007;SDS011;41085;51.594;7.138;2022-12-07T23:05:24;1.98;;;0.47;;
34007;SDS011;41085;51.594;7.138;2022-12-07T23:09:24;0.40;;;0.40;;
34007;SDS011;41085;51.594;7.138;2022-12-07T23:13:25;0.60;;;0.40;;
34007;SDS011;41085;51.594;7.138;2022-12-07T23:17:34;0.47;;;0.27;;
34007;SDS011;41085;51.594;7.138;2022-12-07T23:21:35;0.80;;;0.30;;
34007;SDS011;41085;51.594;7.138;2022-12-07T23:25:35;0.87;;;0.30;;
34007;SDS011;41085;51.594;7.138;2022-12-07T23:29:36;0.20;;;0.20;;
34007;SDS011;41085;51.594;7.138;2022-12-07T23:33:37;2.10;;;0.20;;
34007;SDS011;41085;51.594;7.138;2022-12-07T23:37:37;0.20;;;0.10;;
34007;SDS011;41085;51.594;7.138;2022-12-07T23:41:38;0.20;;;0.20;;
34007;SDS011;41085;51.594;7.138;2022-12-07T23:45:39;1.48;;;0.30;;
34007;SDS011;41085;51.594;7.138;2022-12-07T23:49:43;0.20;;;0.10;;
34007;SDS011;41085;51.594;7.138;2022-12-07T23:53:45;0.10;;;0.10;;
34007;SDS011;41085;51.594;7.138;2022-12-07T23:57:46;0.40;;;0.20;;
